sensor_id;sensor_type;location;lat;lon;timestamp;temperature;humidity
21197;DHT22;10756;51.014;3.786;2022-07-24T00:00:00;19.10;99.90
21197;DHT22;10756;51.014;3.786;2022-07-24T00:02:25;19.10;99.90
21197;DHT22;10756;51.014;3.786;2022-07-24T00:04:51;19.10;99.90
21197;DHT22;10756;51.014;3.786;2022-07-24T00:07:21;19.00;99.90
21197;DHT22;10756;51.014;3.786;2022-07-24T00:09:47;19.10;99.90
21197;DHT22;10756;51.014;3.786;2022-07-24T00:12:13;18.70;99.90
21197;DHT22;10756;51.014;3.786;2022-07-24T00:14:38;18.80;99.90
21197;DHT22;10756;51.014;3.786;2022-07-24T00:17:04;18.70;99.90
21197;DHT22;10756;51.014;3.786;2022-07-24T00:19:30;19.00;99.90
21197;DHT22;10756;51.014;3.786;2022-07-24T00:24:30;18.70;99.90
21197;DHT22;10756;51.014;3.786;2022-07-24T00:26:55;18.60;99.90
21197;DHT22;10756;51.014;3.786;2022-07-24T00:29:21;18.40;99.90
21197;DHT22;10756;51.014;3.786;2022-07-24T00:31:47;18.40;99.90
21197;DHT22;10756;51.014;3.786;2022-07-24T00:34:12;18.50;99.90
21197;DHT22;10756;51.014;3.786;2022-07-24T00:36:38;18.50;99.90
21197;DHT22;10756;51.014;3.786;2022-07-24T00:39:04;18.50;99.90
21197;DHT22;10756;51.014;3.786;2022-07-24T00:41:29;18.30;99.90
21197;DHT22;10756;51.014;3.786;2022-07-24T00:44:07;18.50;99.90
21197;DHT22;10756;51.014;3.786;2022-07-24T00:46:35;18.40;99.90
21197;DHT22;10756;51.014;3.786;2022-07-24T00:49:03;18.30;99.90
21197;DHT22;10756;51.014;3.786;2022-07-24T00:51:29;18.30;99.90
21197;DHT22;10756;51.014;3.786;2022-07-24T00:53:54;18.50;99.90
21197;DHT22;10756;51.014;3.786;2022-07-24T00:56:20;18.70;99.90
21197;DHT22;10756;51.014;3.786;2022-07-24T00:58:47;18.40;99.90
21197;DHT22;10756;51.014;3.786;2022-07-24T01:01:14;18.40;99.90
21197;DHT22;10756;51.014;3.786;2022-07-24T01:03:40;18.40;99.90
21197;DHT22;10756;51.014;3.786;2022-07-24T01:06:06;18.50;99.90
21197;DHT22;10756;51.014;3.786;2022-07-24T01:08:33;18.70;99.90
21197;DHT22;10756;51.014;3.786;2022-07-24T01:11:00;18.80;99.90
21197;DHT22;10756;51.014;3.786;2022-07-24T01:13:26;18.80;99.90
21197;DHT22;10756;51.014;3.786;2022-07-24T01:15:52;18.70;99.90
21197;DHT22;10756;51.014;3.786;2022-07-24T01:18:17;18.80;99.90
21197;DHT22;10756;51.014;3.786;2022-07-24T01:20:46;18.70;99.90
21197;DHT22;10756;51.014;3.786;2022-07-24T01:23:12;18.50;99.90
21197;DHT22;10756;51.014;3.786;2022-07-24T01:25:39;18.20;99.90
21197;DHT22;10756;51.014;3.786;2022-07-24T01:28:05;18.20;99.90
21197;DHT22;10756;51.014;3.786;2022-07-24T01:30:30;18.40;99.90
21197;DHT22;10756;51.014;3.786;2022-07-24T01:32:56;18.60;99.90
21197;DHT22;10756;51.014;3.786;2022-07-24T01:35:22;18.70;99.90
21197;DHT22;10756;51.014;3.786;2022-07-24T01:37:47;18.70;99.90
21197;DHT22;10756;51.014;3.786;2022-07-24T01:40:13;18.70;99.90
21197;DHT22;10756;51.014;3.786;2022-07-24T01:42:38;18.60;99.90
21197;DHT22;10756;51.014;3.786;2022-07-24T01:45:05;18.20;99.90
21197;DHT22;10756;51.014;3.786;2022-07-24T01:47:30;18.10;99.90
21197;DHT22;10756;51.014;3.786;2022-07-24T01:49:56;18.10;99.90
21197;DHT22;10756;51.014;3.786;2022-07-24T01:52:22;18.10;99.90
21197;DHT22;10756;51.014;3.786;2022-07-24T01:54:51;18.20;99.90
21197;DHT22;10756;51.014;3.786;2022-07-24T01:57:17;18.20;99.90
21197;DHT22;10756;51.014;3.786;2022-07-24T01:59:42;18.00;99.90
21197;DHT22;10756;51.014;3.786;2022-07-24T02:02:08;17.90;99.90
21197;DHT22;10756;51.014;3.786;2022-07-24T02:04:34;18.00;99.90
21197;DHT22;10756;51.014;3.786;2022-07-24T02:07:00;18.00;99.90
21197;DHT22;10756;51.014;3.786;2022-07-24T02:09:25;17.90;99.90
21197;DHT22;10756;51.014;3.786;2022-07-24T02:11:52;17.90;99.90
21197;DHT22;10756;51.014;3.786;2022-07-24T02:14:18;17.90;99.90
21197;DHT22;10756;51.014;3.786;2022-07-24T02:16:44;17.70;99.90
21197;DHT22;10756;51.014;3.786;2022-07-24T02:19:10;17.90;99.90
21197;DHT22;10756;51.014;3.786;2022-07-24T02:21:35;17.90;99.90
21197;DHT22;10756;51.014;3.786;2022-07-24T02:24:01;17.90;99.90
21197;DHT22;10756;51.014;3.786;2022-07-24T02:26:27;18.00;99.90
21197;DHT22;10756;51.014;3.786;2022-07-24T02:28:53;17.90;99.90
21197;DHT22;10756;51.014;3.786;2022-07-24T02:31:18;17.80;99.90
21197;DHT22;10756;51.014;3.786;2022-07-24T02:33:44;17.70;99.90
21197;DHT22;10756;51.014;3.786;2022-07-24T02:36:10;17.60;99.90
21197;DHT22;10756;51.014;3.786;2022-07-24T02:38:36;17.50;99.90
21197;DHT22;10756;51.014;3.786;2022-07-24T02:41:02;17.50;99.90
21197;DHT22;10756;51.014;3.786;2022-07-24T02:43:27;17.70;99.90
21197;DHT22;10756;51.014;3.786;2022-07-24T02:45:53;17.90;99.90
21197;DHT22;10756;51.014;3.786;2022-07-24T02:48:19;18.00;99.90
21197;DHT22;10756;51.014;3.786;2022-07-24T02:50:45;17.90;99.90
21197;DHT22;10756;51.014;3.786;2022-07-24T02:53:11;17.60;99.90
21197;DHT22;10756;51.014;3.786;2022-07-24T02:55:37;17.80;99.90
21197;DHT22;10756;51.014;3.786;2022-07-24T02:58:02;17.70;99.90
21197;DHT22;10756;51.014;3.786;2022-07-24T03:00:29;17.50;99.90
21197;DHT22;10756;51.014;3.786;2022-07-24T03:02:55;17.40;99.90
21197;DHT22;10756;51.014;3.786;2022-07-24T03:05:20;17.40;99.90
21197;DHT22;10756;51.014;3.786;2022-07-24T03:07:46;17.40;99.90
21197;DHT22;10756;51.014;3.786;2022-07-24T03:10:15;17.40;99.90
21197;DHT22;10756;51.014;3.786;2022-07-24T03:12:41;17.30;99.90
21197;DHT22;10756;51.014;3.786;2022-07-24T03:15:10;17.50;99.90
21197;DHT22;10756;51.014;3.786;2022-07-24T03:17:36;17.50;99.90
21197;DHT22;10756;51.014;3.786;2022-07-24T03:20:02;17.40;99.90
21197;DHT22;10756;51.014;3.786;2022-07-24T03:22:28;17.30;99.90
21197;DHT22;10756;51.014;3.786;2022-07-24T03:24:54;17.20;99.90
21197;DHT22;10756;51.014;3.786;2022-07-24T03:27:21;17.00;99.90
21197;DHT22;10756;51.014;3.786;2022-07-24T03:29:46;17.10;99.90
21197;DHT22;10756;51.014;3.786;2022-07-24T03:32:12;17.10;99.90
21197;DHT22;10756;51.014;3.786;2022-07-24T03:34:37;17.10;99.90
21197;DHT22;10756;51.014;3.786;2022-07-24T03:37:03;17.10;99.90
21197;DHT22;10756;51.014;3.786;2022-07-24T03:39:28;17.20;99.90
21197;DHT22;10756;51.014;3.786;2022-07-24T03:41:54;17.00;99.90
21197;DHT22;10756;51.014;3.786;2022-07-24T03:44:20;17.10;99.90
21197;DHT22;10756;51.014;3.786;2022-07-24T03:46:45;17.00;99.90
21197;DHT22;10756;51.014;3.786;2022-07-24T03:49:11;17.20;99.90
21197;DHT22;10756;51.014;3.786;2022-07-24T03:51:36;17.40;99.90
21197;DHT22;10756;51.014;3.786;2022-07-24T03:54:03;17.40;99.90
21197;DHT22;10756;51.014;3.786;2022-07-24T03:56:29;17.40;99.90
21197;DHT22;10756;51.014;3.786;2022-07-24T03:58:55;17.30;99.90
21197;DHT22;10756;51.014;3.786;2022-07-24T04:01:21;17.50;99.90
21197;DHT22;10756;51.014;3.786;2022-07-24T04:03:47;17.50;99.90
21197;DHT22;10756;51.014;3.786;2022-07-24T04:06:13;17.60;99.90
21197;DHT22;10756;51.014;3.786;2022-07-24T04:08:39;17.70;99.90
21197;DHT22;10756;51.014;3.786;2022-07-24T04:11:05;17.80;99.90
21197;DHT22;10756;51.014;3.786;2022-07-24T04:13:32;17.90;99.90
21197;DHT22;10756;51.014;3.786;2022-07-24T04:15:58;17.70;99.90
21197;DHT22;10756;51.014;3.786;2022-07-24T04:18:24;17.80;99.90
21197;DHT22;10756;51.014;3.786;2022-07-24T04:20:50;17.80;99.90
21197;DHT22;10756;51.014;3.786;2022-07-24T04:23:16;17.80;99.90
21197;DHT22;10756;51.014;3.786;2022-07-24T04:25:41;17.80;99.90
21197;DHT22;10756;51.014;3.786;2022-07-24T04:28:07;17.70;99.90
21197;DHT22;10756;51.014;3.786;2022-07-24T04:30:33;17.80;99.90
21197;DHT22;10756;51.014;3.786;2022-07-24T04:32:59;17.90;99.90
21197;DHT22;10756;51.014;3.786;2022-07-24T04:35:24;18.00;99.90
21197;DHT22;10756;51.014;3.786;2022-07-24T04:37:50;18.00;99.90
21197;DHT22;10756;51.014;3.786;2022-07-24T04:40:16;18.10;99.90
21197;DHT22;10756;51.014;3.786;2022-07-24T04:42:42;18.20;99.90
21197;DHT22;10756;51.014;3.786;2022-07-24T04:45:08;18.10;99.90
21197;DHT22;10756;51.014;3.786;2022-07-24T04:47:35;18.00;99.90
21197;DHT22;10756;51.014;3.786;2022-07-24T04:50:01;17.90;99.90
21197;DHT22;10756;51.014;3.786;2022-07-24T04:52:27;18.20;99.90
21197;DHT22;10756;51.014;3.786;2022-07-24T04:54:53;18.40;99.90
21197;DHT22;10756;51.014;3.786;2022-07-24T04:57:18;18.40;99.90
21197;DHT22;10756;51.014;3.786;2022-07-24T04:59:44;18.30;99.90
21197;DHT22;10756;51.014;3.786;2022-07-24T05:02:10;18.20;99.90
21197;DHT22;10756;51.014;3.786;2022-07-24T05:04:35;18.10;99.90
21197;DHT22;10756;51.014;3.786;2022-07-24T05:07:02;18.20;99.90
21197;DHT22;10756;51.014;3.786;2022-07-24T05:09:28;18.30;99.90
21197;DHT22;10756;51.014;3.786;2022-07-24T05:11:53;18.30;99.90
21197;DHT22;10756;51.014;3.786;2022-07-24T05:14:19;18.30;99.90
21197;DHT22;10756;51.014;3.786;2022-07-24T05:16:45;18.30;99.90
21197;DHT22;10756;51.014;3.786;2022-07-24T05:19:11;18.30;99.90
21197;DHT22;10756;51.014;3.786;2022-07-24T05:21:37;18.20;99.90
21197;DHT22;10756;51.014;3.786;2022-07-24T05:24:03;18.20;99.90
21197;DHT22;10756;51.014;3.786;2022-07-24T05:26:30;18.20;99.90
21197;DHT22;10756;51.014;3.786;2022-07-24T05:28:58;18.30;99.90
21197;DHT22;10756;51.014;3.786;2022-07-24T05:31:24;18.30;99.90
21197;DHT22;10756;51.014;3.786;2022-07-24T05:33:49;18.40;99.90
21197;DHT22;10756;51.014;3.786;2022-07-24T05:36:15;18.40;99.90
21197;DHT22;10756;51.014;3.786;2022-07-24T05:38:41;18.50;99.90
21197;DHT22;10756;51.014;3.786;2022-07-24T05:41:06;18.60;99.90
21197;DHT22;10756;51.014;3.786;2022-07-24T05:43:32;18.60;99.90
21197;DHT22;10756;51.014;3.786;2022-07-24T05:45:58;18.50;99.90
21197;DHT22;10756;51.014;3.786;2022-07-24T05:48:23;18.40;99.90
21197;DHT22;10756;51.014;3.786;2022-07-24T05:50:49;18.50;99.90
21197;DHT22;10756;51.014;3.786;2022-07-24T05:53:15;18.60;99.90
21197;DHT22;10756;51.014;3.786;2022-07-24T05:55:40;18.70;99.90
21197;DHT22;10756;51.014;3.786;2022-07-24T05:58:06;18.80;99.90
21197;DHT22;10756;51.014;3.786;2022-07-24T06:00:32;18.80;99.90
21197;DHT22;10756;51.014;3.786;2022-07-24T06:02:57;18.90;99.90
21197;DHT22;10756;51.014;3.786;2022-07-24T06:05:23;19.10;99.90
21197;DHT22;10756;51.014;3.786;2022-07-24T06:07:49;19.10;99.90
21197;DHT22;10756;51.014;3.786;2022-07-24T06:10:14;19.40;99.90
21197;DHT22;10756;51.014;3.786;2022-07-24T06:12:40;19.40;99.90
21197;DHT22;10756;51.014;3.786;2022-07-24T06:15:06;19.60;99.90
21197;DHT22;10756;51.014;3.786;2022-07-24T06:17:32;19.60;99.90
21197;DHT22;10756;51.014;3.786;2022-07-24T06:19:58;19.70;99.90
21197;DHT22;10756;51.014;3.786;2022-07-24T06:22:23;19.70;99.90
21197;DHT22;10756;51.014;3.786;2022-07-24T06:24:49;19.60;99.90
21197;DHT22;10756;51.014;3.786;2022-07-24T06:27:15;19.70;99.90
21197;DHT22;10756;51.014;3.786;2022-07-24T06:29:40;19.80;99.90
21197;DHT22;10756;51.014;3.786;2022-07-24T06:32:06;20.10;99.90
21197;DHT22;10756;51.014;3.786;2022-07-24T06:34:32;20.00;99.90
21197;DHT22;10756;51.014;3.786;2022-07-24T06:36:57;20.00;99.90
21197;DHT22;10756;51.014;3.786;2022-07-24T06:39:23;20.20;99.90
21197;DHT22;10756;51.014;3.786;2022-07-24T06:41:49;20.60;99.90
21197;DHT22;10756;51.014;3.786;2022-07-24T06:44:14;20.70;99.90
21197;DHT22;10756;51.014;3.786;2022-07-24T06:46:40;20.60;99.90
21197;DHT22;10756;51.014;3.786;2022-07-24T06:49:06;20.80;99.90
21197;DHT22;10756;51.014;3.786;2022-07-24T06:51:31;20.80;99.90
21197;DHT22;10756;51.014;3.786;2022-07-24T06:53:57;20.70;99.90
21197;DHT22;10756;51.014;3.786;2022-07-24T06:56:23;20.90;99.90
21197;DHT22;10756;51.014;3.786;2022-07-24T06:58:48;21.10;99.90
21197;DHT22;10756;51.014;3.786;2022-07-24T07:01:14;21.20;99.90
21197;DHT22;10756;51.014;3.786;2022-07-24T07:03:39;20.90;99.90
21197;DHT22;10756;51.014;3.786;2022-07-24T07:06:05;21.10;99.90
21197;DHT22;10756;51.014;3.786;2022-07-24T07:08:31;21.40;99.90
21197;DHT22;10756;51.014;3.786;2022-07-24T07:10:56;21.50;99.90
21197;DHT22;10756;51.014;3.786;2022-07-24T07:13:25;21.70;99.90
21197;DHT22;10756;51.014;3.786;2022-07-24T07:15:50;21.80;99.90
21197;DHT22;10756;51.014;3.786;2022-07-24T07:18:16;21.80;99.90
21197;DHT22;10756;51.014;3.786;2022-07-24T07:20:42;21.70;99.90
21197;DHT22;10756;51.014;3.786;2022-07-24T07:23:07;21.90;99.90
21197;DHT22;10756;51.014;3.786;2022-07-24T07:25:33;21.90;99.90
21197;DHT22;10756;51.014;3.786;2022-07-24T07:27:59;21.80;99.90
21197;DHT22;10756;51.014;3.786;2022-07-24T07:30:25;21.90;99.90
21197;DHT22;10756;51.014;3.786;2022-07-24T07:32:50;21.90;99.90
21197;DHT22;10756;51.014;3.786;2022-07-24T07:35:16;22.10;99.90
21197;DHT22;10756;51.014;3.786;2022-07-24T07:37:44;22.20;99.90
21197;DHT22;10756;51.014;3.786;2022-07-24T07:40:10;22.00;99.90
21197;DHT22;10756;51.014;3.786;2022-07-24T07:42:36;22.20;99.90
21197;DHT22;10756;51.014;3.786;2022-07-24T07:45:02;22.40;99.90
21197;DHT22;10756;51.014;3.786;2022-07-24T07:47:28;22.60;99.90
21197;DHT22;10756;51.014;3.786;2022-07-24T07:49:54;22.60;99.90
21197;DHT22;10756;51.014;3.786;2022-07-24T07:52:20;22.60;99.90
21197;DHT22;10756;51.014;3.786;2022-07-24T07:54:46;22.70;99.90
21197;DHT22;10756;51.014;3.786;2022-07-24T07:57:12;22.80;99.90
21197;DHT22;10756;51.014;3.786;2022-07-24T07:59:37;23.10;99.90
21197;DHT22;10756;51.014;3.786;2022-07-24T08:02:03;23.10;99.90
21197;DHT22;10756;51.014;3.786;2022-07-24T08:04:29;23.10;99.90
21197;DHT22;10756;51.014;3.786;2022-07-24T08:06:54;23.10;99.90
21197;DHT22;10756;51.014;3.786;2022-07-24T08:09:20;23.10;99.90
21197;DHT22;10756;51.014;3.786;2022-07-24T08:11:46;23.10;99.90
21197;DHT22;10756;51.014;3.786;2022-07-24T08:14:12;23.30;99.90
21197;DHT22;10756;51.014;3.786;2022-07-24T08:16:37;23.40;99.90
21197;DHT22;10756;51.014;3.786;2022-07-24T08:19:03;23.50;99.90
21197;DHT22;10756;51.014;3.786;2022-07-24T08:21:29;23.50;99.90
21197;DHT22;10756;51.014;3.786;2022-07-24T08:23:56;23.80;99.90
21197;DHT22;10756;51.014;3.786;2022-07-24T08:26:22;24.00;99.90
21197;DHT22;10756;51.014;3.786;2022-07-24T08:28:48;24.20;99.90
21197;DHT22;10756;51.014;3.786;2022-07-24T08:31:13;24.20;99.90
21197;DHT22;10756;51.014;3.786;2022-07-24T08:33:39;24.20;99.90
21197;DHT22;10756;51.014;3.786;2022-07-24T08:36:05;24.20;99.90
21197;DHT22;10756;51.014;3.786;2022-07-24T08:38:31;24.30;99.90
21197;DHT22;10756;51.014;3.786;2022-07-24T08:40:56;24.40;99.90
21197;DHT22;10756;51.014;3.786;2022-07-24T08:43:22;24.50;99.90
21197;DHT22;10756;51.014;3.786;2022-07-24T08:45:52;24.50;99.90
21197;DHT22;10756;51.014;3.786;2022-07-24T08:48:21;24.50;99.90
21197;DHT22;10756;51.014;3.786;2022-07-24T08:50:50;24.60;99.90
21197;DHT22;10756;51.014;3.786;2022-07-24T08:53:20;24.70;99.90
21197;DHT22;10756;51.014;3.786;2022-07-24T08:55:46;25.00;99.90
21197;DHT22;10756;51.014;3.786;2022-07-24T08:58:11;25.00;99.90
21197;DHT22;10756;51.014;3.786;2022-07-24T09:00:37;24.90;99.90
21197;DHT22;10756;51.014;3.786;2022-07-24T09:03:03;24.80;99.90
21197;DHT22;10756;51.014;3.786;2022-07-24T09:05:31;24.80;99.90
21197;DHT22;10756;51.014;3.786;2022-07-24T09:08:12;24.80;99.90
21197;DHT22;10756;51.014;3.786;2022-07-24T09:10:39;24.90;99.90
21197;DHT22;10756;51.014;3.786;2022-07-24T09:13:18;25.00;99.90
21197;DHT22;10756;51.014;3.786;2022-07-24T09:15:46;25.20;99.90
21197;DHT22;10756;51.014;3.786;2022-07-24T09:18:36;25.40;99.90
21197;DHT22;10756;51.014;3.786;2022-07-24T09:21:19;25.50;99.90
21197;DHT22;10756;51.014;3.786;2022-07-24T09:23:45;25.40;99.90
21197;DHT22;10756;51.014;3.786;2022-07-24T09:26:11;25.40;99.90
21197;DHT22;10756;51.014;3.786;2022-07-24T09:28:48;25.40;99.90
21197;DHT22;10756;51.014;3.786;2022-07-24T09:31:14;25.50;99.90
21197;DHT22;10756;51.014;3.786;2022-07-24T09:34:08;25.50;99.90
21197;DHT22;10756;51.014;3.786;2022-07-24T09:36:34;25.70;99.90
21197;DHT22;10756;51.014;3.786;2022-07-24T09:39:00;25.70;99.90
21197;DHT22;10756;51.014;3.786;2022-07-24T09:41:26;25.80;99.90
21197;DHT22;10756;51.014;3.786;2022-07-24T09:44:03;25.90;99.90
21197;DHT22;10756;51.014;3.786;2022-07-24T09:46:28;25.80;99.90
21197;DHT22;10756;51.014;3.786;2022-07-24T09:48:56;25.80;99.90
21197;DHT22;10756;51.014;3.786;2022-07-24T09:51:24;26.00;99.90
21197;DHT22;10756;51.014;3.786;2022-07-24T09:53:56;26.00;99.90
21197;DHT22;10756;51.014;3.786;2022-07-24T09:56:22;26.00;99.90
21197;DHT22;10756;51.014;3.786;2022-07-24T09:58:53;26.20;99.90
21197;DHT22;10756;51.014;3.786;2022-07-24T10:01:22;26.30;99.90
21197;DHT22;10756;51.014;3.786;2022-07-24T10:03:50;26.10;99.90
21197;DHT22;10756;51.014;3.786;2022-07-24T10:06:20;26.20;99.90
21197;DHT22;10756;51.014;3.786;2022-07-24T10:08:50;26.30;99.90
21197;DHT22;10756;51.014;3.786;2022-07-24T10:11:16;26.30;99.90
21197;DHT22;10756;51.014;3.786;2022-07-24T10:13:43;26.30;99.90
21197;DHT22;10756;51.014;3.786;2022-07-24T10:18:49;26.60;99.90
21197;DHT22;10756;51.014;3.786;2022-07-24T10:21:24;26.70;99.90
21197;DHT22;10756;51.014;3.786;2022-07-24T10:26:40;26.80;99.90
21197;DHT22;10756;51.014;3.786;2022-07-24T10:29:11;26.80;99.90
21197;DHT22;10756;51.014;3.786;2022-07-24T10:31:39;26.80;99.90
21197;DHT22;10756;51.014;3.786;2022-07-24T10:34:11;26.90;99.90
21197;DHT22;10756;51.014;3.786;2022-07-24T10:39:30;27.50;99.90
21197;DHT22;10756;51.014;3.786;2022-07-24T10:42:01;27.70;99.90
21197;DHT22;10756;51.014;3.786;2022-07-24T10:44:29;27.70;99.90
21197;DHT22;10756;51.014;3.786;2022-07-24T10:46:59;27.90;99.90
21197;DHT22;10756;51.014;3.786;2022-07-24T10:52:05;27.90;99.90
21197;DHT22;10756;51.014;3.786;2022-07-24T10:54:33;27.80;99.90
21197;DHT22;10756;51.014;3.786;2022-07-24T10:56:59;27.80;99.90
21197;DHT22;10756;51.014;3.786;2022-07-24T10:59:36;27.50;99.90
21197;DHT22;10756;51.014;3.786;2022-07-24T11:10:54;28.00;99.90
21197;DHT22;10756;51.014;3.786;2022-07-24T11:18:37;28.10;99.90
21197;DHT22;10756;51.014;3.786;2022-07-24T11:21:04;28.10;99.90
21197;DHT22;10756;51.014;3.786;2022-07-24T11:23:30;28.20;99.90
21197;DHT22;10756;51.014;3.786;2022-07-24T11:29:31;29.80;99.90
21197;DHT22;10756;51.014;3.786;2022-07-24T11:31:52;31.30;99.90
21197;DHT22;10756;51.014;3.786;2022-07-24T11:34:18;32.70;99.90
21197;DHT22;10756;51.014;3.786;2022-07-24T11:36:49;33.20;99.90
21197;DHT22;10756;51.014;3.786;2022-07-24T11:39:15;33.90;99.90
21197;DHT22;10756;51.014;3.786;2022-07-24T11:44:20;34.50;99.90
21197;DHT22;10756;51.014;3.786;2022-07-24T11:46:46;34.10;99.90
21197;DHT22;10756;51.014;3.786;2022-07-24T11:49:12;33.80;99.90
21197;DHT22;10756;51.014;3.786;2022-07-24T11:51:42;34.70;98.70
21197;DHT22;10756;51.014;3.786;2022-07-24T11:54:10;34.20;98.30
21197;DHT22;10756;51.014;3.786;2022-07-24T11:56:36;34.20;97.50
21197;DHT22;10756;51.014;3.786;2022-07-24T11:59:02;33.10;98.10
21197;DHT22;10756;51.014;3.786;2022-07-24T12:01:31;33.10;98.90
21197;DHT22;10756;51.014;3.786;2022-07-24T12:03:58;34.40;97.60
21197;DHT22;10756;51.014;3.786;2022-07-24T12:06:25;34.80;96.60
21197;DHT22;10756;51.014;3.786;2022-07-24T12:08:56;34.90;95.50
21197;DHT22;10756;51.014;3.786;2022-07-24T12:11:22;34.80;95.50
21197;DHT22;10756;51.014;3.786;2022-07-24T12:13:49;34.50;94.80
21197;DHT22;10756;51.014;3.786;2022-07-24T12:16:27;34.30;94.40
21197;DHT22;10756;51.014;3.786;2022-07-24T12:19:18;34.60;94.70
21197;DHT22;10756;51.014;3.786;2022-07-24T12:21:45;35.40;93.80
21197;DHT22;10756;51.014;3.786;2022-07-24T12:24:16;35.90;92.60
21197;DHT22;10756;51.014;3.786;2022-07-24T12:29:17;36.50;90.80
21197;DHT22;10756;51.014;3.786;2022-07-24T12:31:43;37.30;89.90
21197;DHT22;10756;51.014;3.786;2022-07-24T12:34:08;38.20;85.80
21197;DHT22;10756;51.014;3.786;2022-07-24T12:36:41;37.40;85.40
21197;DHT22;10756;51.014;3.786;2022-07-24T12:39:11;37.40;85.80
21197;DHT22;10756;51.014;3.786;2022-07-24T12:41:45;36.30;85.20
21197;DHT22;10756;51.014;3.786;2022-07-24T12:44:11;36.20;86.30
21197;DHT22;10756;51.014;3.786;2022-07-24T12:46:41;36.10;85.80
21197;DHT22;10756;51.014;3.786;2022-07-24T12:49:23;36.70;85.90
21197;DHT22;10756;51.014;3.786;2022-07-24T12:51:55;37.70;82.60
21197;DHT22;10756;51.014;3.786;2022-07-24T12:54:27;37.60;81.80
21197;DHT22;10756;51.014;3.786;2022-07-24T12:56:56;37.10;82.30
21197;DHT22;10756;51.014;3.786;2022-07-24T12:59:29;37.10;82.00
21197;DHT22;10756;51.014;3.786;2022-07-24T13:01:58;39.10;78.90
21197;DHT22;10756;51.014;3.786;2022-07-24T13:04:27;40.10;75.60
21197;DHT22;10756;51.014;3.786;2022-07-24T13:06:58;41.30;72.30
21197;DHT22;10756;51.014;3.786;2022-07-24T13:09:25;40.80;70.50
21197;DHT22;10756;51.014;3.786;2022-07-24T13:11:52;38.60;72.60
21197;DHT22;10756;51.014;3.786;2022-07-24T13:14:32;38.40;73.90
21197;DHT22;10756;51.014;3.786;2022-07-24T13:17:04;37.80;74.20
21197;DHT22;10756;51.014;3.786;2022-07-24T13:19:30;37.20;76.50
21197;DHT22;10756;51.014;3.786;2022-07-24T13:22:08;38.40;74.50
21197;DHT22;10756;51.014;3.786;2022-07-24T13:24:37;40.20;72.50
21197;DHT22;10756;51.014;3.786;2022-07-24T13:27:04;41.00;69.40
21197;DHT22;10756;51.014;3.786;2022-07-24T13:29:32;41.40;68.30
21197;DHT22;10756;51.014;3.786;2022-07-24T13:32:02;39.30;69.30
21197;DHT22;10756;51.014;3.786;2022-07-24T13:34:31;37.90;71.40
21197;DHT22;10756;51.014;3.786;2022-07-24T13:37:03;37.00;73.20
21197;DHT22;10756;51.014;3.786;2022-07-24T13:39:32;37.50;73.50
21197;DHT22;10756;51.014;3.786;2022-07-24T13:41:58;37.10;72.50
21197;DHT22;10756;51.014;3.786;2022-07-24T13:44:24;36.70;73.60
21197;DHT22;10756;51.014;3.786;2022-07-24T13:46:49;37.00;74.00
21197;DHT22;10756;51.014;3.786;2022-07-24T13:49:15;37.60;73.60
21197;DHT22;10756;51.014;3.786;2022-07-24T13:51:50;38.20;71.60
21197;DHT22;10756;51.014;3.786;2022-07-24T13:54:25;37.10;72.00
21197;DHT22;10756;51.014;3.786;2022-07-24T13:57:08;36.90;73.50
21197;DHT22;10756;51.014;3.786;2022-07-24T13:59:34;38.30;71.10
21197;DHT22;10756;51.014;3.786;2022-07-24T14:02:00;39.80;69.10
21197;DHT22;10756;51.014;3.786;2022-07-24T14:04:26;41.40;66.40
21197;DHT22;10756;51.014;3.786;2022-07-24T14:06:55;39.50;65.80
21197;DHT22;10756;51.014;3.786;2022-07-24T14:09:29;39.00;66.80
21197;DHT22;10756;51.014;3.786;2022-07-24T14:12:07;38.30;68.20
21197;DHT22;10756;51.014;3.786;2022-07-24T14:14:36;39.50;65.90
21197;DHT22;10756;51.014;3.786;2022-07-24T14:17:10;39.10;66.40
21197;DHT22;10756;51.014;3.786;2022-07-24T14:19:36;38.00;68.10
21197;DHT22;10756;51.014;3.786;2022-07-24T14:22:02;38.00;67.60
21197;DHT22;10756;51.014;3.786;2022-07-24T14:24:28;37.50;69.40
21197;DHT22;10756;51.014;3.786;2022-07-24T14:26:53;39.10;67.40
21197;DHT22;10756;51.014;3.786;2022-07-24T14:29:19;39.40;66.30
21197;DHT22;10756;51.014;3.786;2022-07-24T14:31:45;39.50;65.10
21197;DHT22;10756;51.014;3.786;2022-07-24T14:34:11;38.40;65.90
21197;DHT22;10756;51.014;3.786;2022-07-24T14:36:37;38.20;67.30
21197;DHT22;10756;51.014;3.786;2022-07-24T14:39:03;39.80;65.10
21197;DHT22;10756;51.014;3.786;2022-07-24T14:41:29;40.60;63.50
21197;DHT22;10756;51.014;3.786;2022-07-24T14:43:54;40.70;62.80
21197;DHT22;10756;51.014;3.786;2022-07-24T14:46:23;41.80;61.30
21197;DHT22;10756;51.014;3.786;2022-07-24T14:48:49;42.50;58.90
21197;DHT22;10756;51.014;3.786;2022-07-24T14:51:17;42.60;59.00
21197;DHT22;10756;51.014;3.786;2022-07-24T14:53:43;43.40;58.40
21197;DHT22;10756;51.014;3.786;2022-07-24T14:56:09;43.30;57.40
21197;DHT22;10756;51.014;3.786;2022-07-24T14:58:35;41.80;58.50
21197;DHT22;10756;51.014;3.786;2022-07-24T15:01:01;41.50;57.60
21197;DHT22;10756;51.014;3.786;2022-07-24T15:03:27;40.40;59.20
21197;DHT22;10756;51.014;3.786;2022-07-24T15:05:52;40.50;59.90
21197;DHT22;10756;51.014;3.786;2022-07-24T15:08:21;40.20;60.20
21197;DHT22;10756;51.014;3.786;2022-07-24T15:10:47;39.80;59.90
21197;DHT22;10756;51.014;3.786;2022-07-24T15:13:12;39.60;59.70
21197;DHT22;10756;51.014;3.786;2022-07-24T15:15:56;39.10;61.10
21197;DHT22;10756;51.014;3.786;2022-07-24T15:18:22;37.80;62.60
21197;DHT22;10756;51.014;3.786;2022-07-24T15:20:48;37.20;63.50
21197;DHT22;10756;51.014;3.786;2022-07-24T15:23:14;37.00;65.00
21197;DHT22;10756;51.014;3.786;2022-07-24T15:25:40;37.00;64.40
21197;DHT22;10756;51.014;3.786;2022-07-24T15:28:05;37.70;64.40
21197;DHT22;10756;51.014;3.786;2022-07-24T15:30:31;38.40;62.60
21197;DHT22;10756;51.014;3.786;2022-07-24T15:32:57;38.40;63.10
21197;DHT22;10756;51.014;3.786;2022-07-24T15:35:23;38.30;62.50
21197;DHT22;10756;51.014;3.786;2022-07-24T15:37:51;38.40;62.70
21197;DHT22;10756;51.014;3.786;2022-07-24T15:40:23;38.50;61.90
21197;DHT22;10756;51.014;3.786;2022-07-24T15:42:53;39.30;61.50
21197;DHT22;10756;51.014;3.786;2022-07-24T15:45:25;39.50;60.50
21197;DHT22;10756;51.014;3.786;2022-07-24T15:47:50;38.60;61.30
21197;DHT22;10756;51.014;3.786;2022-07-24T15:50:17;38.30;61.80
21197;DHT22;10756;51.014;3.786;2022-07-24T15:52:46;38.50;61.70
21197;DHT22;10756;51.014;3.786;2022-07-24T15:55:15;38.70;61.40
21197;DHT22;10756;51.014;3.786;2022-07-24T15:58:02;38.80;61.50
21197;DHT22;10756;51.014;3.786;2022-07-24T16:00:31;39.20;60.90
21197;DHT22;10756;51.014;3.786;2022-07-24T16:02:59;40.30;59.70
21197;DHT22;10756;51.014;3.786;2022-07-24T16:05:31;40.70;58.70